Time;durP1;ratioP1;P1;durP2;ratioP2;P2;SDS_P1;SDS_P2;PMS_P1;PMS_P2;Temp;Humidity;BMP_temperature;BMP_pressure;BME280_temperature;BME280_humidity;BME280_pressure;Samples;Min_cycle;Max_cycle;Signal;HPM_P1;HPM_P2
2022/07/02 00:01:03;;;;;;;9.75;2.63;;;;;;;;;;6255484;28;20049;-83
2022/07/02 00:04:06;;;;;;;5.88;2.55;;;;;;;;;;6257067;28;20053;-82
2022/07/02 00:07:08;;;;;;;8.18;2.78;;;;;;;;;;6259960;28;20103;-82
2022/07/02 00:10:10;;;;;;;6.60;2.60;;;;;;;;;;6257390;28;20544;-83
2022/07/02 00:13:12;;;;;;;3.20;2.55;;;;;;;;;;6258597;28;20049;-82
2022/07/02 00:16:15;;;;;;;6.50;2.63;;;;;;;;;;6256357;28;20059;-80
2022/07/02 00:19:17;;;;;;;4.25;2.63;;;;;;;;;;6258571;28;20057;-84
2022/07/02 00:22:20;;;;;;;5.85;2.72;;;;;;;;;;6256281;28;20045;-84
2022/07/02 00:25:22;;;;;;;52.42;29.50;;;;;;;;;;6255902;28;20324;-82
2022/07/02 00:28:25;;;;;;;9.93;5.37;;;;;;;;;;6256781;28;20072;-83
2022/07/02 00:31:28;;;;;;;11.70;6.65;;;;;;;;;;6255917;28;20037;-82
2022/07/02 00:34:31;;;;;;;19.17;10.65;;;;;;;;;;6262673;28;20067;-83
2022/07/02 00:37:33;;;;;;;4.35;2.95;;;;;;;;;;6258067;28;20267;-84
2022/07/02 00:40:35;;;;;;;8.40;4.88;;;;;;;;;;6256849;28;20056;-83
2022/07/02 00:43:37;;;;;;;4.88;3.08;;;;;;;;;;6255515;28;20099;-85
2022/07/02 00:46:41;;;;;;;7.10;3.28;;;;;;;;;;6258756;28;20376;-85
2022/07/02 00:49:43;;;;;;;5.22;3.13;;;;;;;;;;6253580;28;20096;-84
2022/07/02 00:52:44;;;;;;;6.13;3.00;;;;;;;;;;6262644;28;20067;-86
2022/07/02 00:55:46;;;;;;;6.85;3.10;;;;;;;;;;6257432;28;20072;-86
2022/07/02 00:58:48;;;;;;;6.25;3.55;;;;;;;;;;6252950;28;20068;-86
2022/07/02 01:01:51;;;;;;;7.05;3.70;;;;;;;;;;6256920;28;20057;-81
2022/07/02 01:04:53;;;;;;;5.20;3.38;;;;;;;;;;6256093;28;20053;-82
2022/07/02 01:11:12;;;;;;;4.78;3.10;;;;;;;;;;6256603;28;20697;-86
2022/07/02 01:14:14;;;;;;;3.45;2.80;;;;;;;;;;6257522;28;20112;-86
2022/07/02 01:17:17;;;;;;;5.22;2.90;;;;;;;;;;6250654;28;20041;-84
2022/07/02 01:20:18;;;;;;;3.95;2.90;;;;;;;;;;6252347;28;20053;-84
2022/07/02 01:23:21;;;;;;;5.05;2.90;;;;;;;;;;6252063;28;20053;-83
2022/07/02 01:26:23;;;;;;;4.57;2.88;;;;;;;;;;6256496;28;20111;-84
2022/07/02 01:29:25;;;;;;;4.63;2.88;;;;;;;;;;6258370;28;20049;-86
2022/07/02 01:32:26;;;;;;;5.22;3.30;;;;;;;;;;6256684;28;20053;-84
2022/07/02 01:35:28;;;;;;;5.30;2.78;;;;;;;;;;6253461;28;20041;-84
2022/07/02 01:38:31;;;;;;;5.43;3.35;;;;;;;;;;6253569;28;20064;-86
2022/07/02 01:41:42;;;;;;;3.85;2.88;;;;;;;;;;6258078;28;20045;-85
2022/07/02 01:44:45;;;;;;;4.40;2.88;;;;;;;;;;6256515;28;20049;-86
2022/07/02 01:47:47;;;;;;;6.93;3.30;;;;;;;;;;6260532;28;20057;-86
2022/07/02 01:50:48;;;;;;;7.28;3.50;;;;;;;;;;6256582;28;20053;-84
2022/07/02 01:53:51;;;;;;;25.20;4.82;;;;;;;;;;6257389;28;20081;-83
2022/07/02 01:56:53;;;;;;;;;;;;;;;;;;6254931;28;20053;-84
2022/07/02 01:59:55;;;;;;;33.20;5.55;;;;;;;;;;6259621;28;19925;-83
2022/07/02 02:02:56;;;;;;;9.80;3.30;;;;;;;;;;6254613;28;20041;-84
2022/07/02 02:05:58;;;;;;;10.02;4.38;;;;;;;;;;6258559;28;20063;-84
2022/07/02 02:09:01;;;;;;;8.32;3.78;;;;;;;;;;6250937;28;20088;-84
2022/07/02 02:12:03;;;;;;;6.97;3.20;;;;;;;;;;6255212;28;20099;-85
2022/07/02 02:15:06;;;;;;;11.45;3.58;;;;;;;;;;6257552;28;20049;-85
2022/07/02 02:18:08;;;;;;;5.22;3.33;;;;;;;;;;6253118;28;20340;-86
2022/07/02 02:21:10;;;;;;;8.98;3.72;;;;;;;;;;6251263;28;20037;-86
2022/07/02 02:24:13;;;;;;;4.78;3.58;;;;;;;;;;6256402;28;20068;-85
2022/07/02 02:27:14;;;;;;;7.70;3.40;;;;;;;;;;6253142;28;20418;-85
2022/07/02 02:30:16;;;;;;;8.02;3.70;;;;;;;;;;6252376;28;20045;-85
2022/07/02 02:33:18;;;;;;;5.68;3.70;;;;;;;;;;6258521;28;20049;-85
2022/07/02 02:36:20;;;;;;;5.95;3.50;;;;;;;;;;6255030;28;20065;-84
2022/07/02 02:39:23;;;;;;;6.20;3.47;;;;;;;;;;6256024;28;20065;-81
2022/07/02 02:42:24;;;;;;;6.68;3.30;;;;;;;;;;6238994;28;20065;-84
2022/07/02 02:45:26;;;;;;;6.35;3.50;;;;;;;;;;6256262;28;20092;-84
2022/07/02 02:48:28;;;;;;;4.93;3.33;;;;;;;;;;6257115;28;20050;-84
2022/07/02 02:51:29;;;;;;;4.13;2.92;;;;;;;;;;6263671;28;20045;-85
2022/07/02 02:54:33;;;;;;;5.35;2.92;;;;;;;;;;6261880;28;20045;-83
2022/07/02 02:57:34;;;;;;;6.13;3.50;;;;;;;;;;6265554;28;20374;-84
2022/07/02 03:00:36;;;;;;;4.53;2.92;;;;;;;;;;6257965;28;20095;-86
2022/07/02 03:03:38;;;;;;;3.72;2.80;;;;;;;;;;6265723;28;20048;-84
2022/07/02 03:06:39;;;;;;;4.88;2.92;;;;;;;;;;6262078;28;20049;-85
2022/07/02 03:09:42;;;;;;;3.72;2.80;;;;;;;;;;6261755;28;20045;-82
2022/07/02 03:12:44;;;;;;;5.70;3.33;;;;;;;;;;6260604;28;20041;-84
2022/07/02 03:15:46;;;;;;;4.35;3.10;;;;;;;;;;6258560;28;20049;-85
2022/07/02 03:18:47;;;;;;;6.72;3.10;;;;;;;;;;6262447;28;20096;-83
2022/07/02 03:21:49;;;;;;;4.20;2.75;;;;;;;;;;6258201;28;20057;-84
2022/07/02 03:24:52;;;;;;;4.93;3.10;;;;;;;;;;6258931;28;20052;-84
2022/07/02 03:27:54;;;;;;;4.50;3.55;;;;;;;;;;6259634;28;20049;-83
2022/07/02 03:30:56;;;;;;;4.28;3.28;;;;;;;;;;6255728;28;20053;-83
2022/07/02 03:33:58;;;;;;;7.60;3.47;;;;;;;;;;6261357;28;20061;-84
2022/07/02 03:36:59;;;;;;;6.25;3.65;;;;;;;;;;6258449;28;20053;-86
2022/07/02 03:40:03;;;;;;;5.70;3.47;;;;;;;;;;6258440;28;20063;-84
2022/07/02 03:43:04;;;;;;;;;;;;;;;;;;6261677;28;20041;-84
2022/07/02 03:46:06;;;;;;;4.07;3.42;;;;;;;;;;6258508;28;19925;-83
2022/07/02 03:49:07;;;;;;;7.85;3.38;;;;;;;;;;6252639;28;20065;-84
2022/07/02 03:52:09;;;;;;;5.97;3.10;;;;;;;;;;6260643;28;20056;-82
2022/07/02 03:55:12;;;;;;;4.70;3.28;;;;;;;;;;6259593;28;20364;-83
2022/07/02 03:58:14;;;;;;;4.15;2.90;;;;;;;;;;6256778;28;20053;-85
2022/07/02 04:01:16;;;;;;;11.10;3.28;;;;;;;;;;6257381;28;20104;-85
2022/07/02 04:04:17;;;;;;;5.30;3.17;;;;;;;;;;6256309;28;20057;-84
2022/07/02 04:07:19;;;;;;;8.15;3.72;;;;;;;;;;6258415;28;20142;-85
2022/07/02 04:10:22;;;;;;;6.47;3.28;;;;;;;;;;6257775;28;20041;-83
2022/07/02 04:13:24;;;;;;;6.28;3.42;;;;;;;;;;6259080;28;21038;-83
2022/07/02 04:16:25;;;;;;;6.65;3.47;;;;;;;;;;6258353;28;20409;-82
2022/07/02 04:19:27;;;;;;;7.73;3.17;;;;;;;;;;6215939;28;1207469;-81
2022/07/02 04:22:29;;;;;;;7.25;3.28;;;;;;;;;;6260552;28;20307;-83
2022/07/02 04:25:32;;;;;;;7.40;3.45;;;;;;;;;;6262459;28;20094;-83
2022/07/02 04:28:34;;;;;;;5.10;2.90;;;;;;;;;;6257328;28;20053;-83
2022/07/02 04:31:35;;;;;;;7.07;3.58;;;;;;;;;;6258291;28;20044;-83
2022/07/02 04:34:37;;;;;;;5.97;3.17;;;;;;;;;;6249851;28;20088;-83
2022/07/02 04:37:39;;;;;;;4.95;2.92;;;;;;;;;;6264938;28;20057;-84
2022/07/02 04:40:42;;;;;;;6.15;3.50;;;;;;;;;;6260313;28;20060;-85
2022/07/02 04:43:43;;;;;;;4.90;3.22;;;;;;;;;;6260694;28;20057;-84
2022/07/02 04:46:45;;;;;;;8.15;4.00;;;;;;;;;;6259504;28;20045;-83
2022/07/02 04:49:47;;;;;;;6.53;3.60;;;;;;;;;;6261066;28;20045;-84
2022/07/02 04:52:48;;;;;;;6.00;3.28;;;;;;;;;;6253047;28;20057;-85
2022/07/02 04:55:52;;;;;;;6.55;3.30;;;;;;;;;;6258146;28;20049;-85
2022/07/02 04:58:53;;;;;;;;;;;;;;;;;;6259347;28;20068;-79
2022/07/02 05:01:55;;;;;;;7.88;2.95;;;;;;;;;;6252100;28;19929;-79
2022/07/02 05:04:56;;;;;;;7.15;3.03;;;;;;;;;;6258094;28;20099;-76
2022/07/02 05:07:58;;;;;;;4.97;2.72;;;;;;;;;;6259184;28;20045;-77
2022/07/02 05:11:01;;;;;;;6.63;2.80;;;;;;;;;;6258191;28;20107;-76
2022/07/02 05:14:03;;;;;;;4.65;2.75;;;;;;;;;;6262041;28;20339;-76
2022/07/02 05:17:05;;;;;;;6.40;3.00;;;;;;;;;;6257125;28;20096;-78
2022/07/02 05:20:07;;;;;;;6.55;2.97;;;;;;;;;;6260805;28;20060;-78
2022/07/02 05:23:09;;;;;;;14.00;3.20;;;;;;;;;;6254644;28;20751;-77
2022/07/02 05:26:12;;;;;;;8.90;2.97;;;;;;;;;;6255075;28;20053;-77
2022/07/02 05:29:14;;;;;;;6.97;2.72;;;;;;;;;;6257143;28;20057;-77
2022/07/02 05:32:15;;;;;;;5.82;2.85;;;;;;;;;;6257717;28;20116;-77
2022/07/02 05:35:17;;;;;;;7.18;2.92;;;;;;;;;;6257889;28;20365;-79
2022/07/02 05:38:19;;;;;;;7.10;3.05;;;;;;;;;;6252076;28;20095;-78
2022/07/02 05:41:22;;;;;;;7.72;2.75;;;;;;;;;;6259779;28;20337;-79
2022/07/02 05:44:24;;;;;;;9.35;2.95;;;;;;;;;;6258505;28;20053;-79
2022/07/02 05:47:26;;;;;;;5.40;2.70;;;;;;;;;;6258600;28;20099;-78
2022/07/02 05:50:27;;;;;;;5.80;2.90;;;;;;;;;;6258026;28;20060;-77
2022/07/02 05:53:29;;;;;;;7.85;3.00;;;;;;;;;;6258217;28;20053;-77
2022/07/02 05:56:32;;;;;;;5.55;3.08;;;;;;;;;;6257415;28;20053;-76
2022/07/02 05:59:34;;;;;;;6.32;2.70;;;;;;;;;;6257502;28;20068;-79
2022/07/02 06:02:36;;;;;;;4.57;2.20;;;;;;;;;;6257450;28;20052;-78
2022/07/02 06:09:08;;;;;;;4.28;2.63;;;;;;;;;;6136443;28;20059;-79
2022/07/02 06:12:11;;;;;;;8.52;3.10;;;;;;;;;;6138062;28;20677;-77
2022/07/02 06:15:13;;;;;;;4.78;2.28;;;;;;;;;;6136251;28;20295;-79
2022/07/02 06:18:15;;;;;;;5.80;2.30;;;;;;;;;;6138794;28;20357;-78
2022/07/02 06:21:16;;;;;;;3.25;2.17;;;;;;;;;;6138713;28;20118;-77
2022/07/02 06:24:18;;;;;;;6.72;2.92;;;;;;;;;;6138022;28;20055;-78
2022/07/02 06:27:21;;;;;;;5.68;2.50;;;;;;;;;;6138394;28;20067;-79
2022/07/02 06:30:23;;;;;;;9.25;2.95;;;;;;;;;;6135367;29;20086;-77
2022/07/02 06:33:24;;;;;;;5.55;2.78;;;;;;;;;;6139408;28;20054;-77
2022/07/02 06:36:26;;;;;;;5.72;2.95;;;;;;;;;;6140662;29;20055;-78
2022/07/02 06:39:28;;;;;;;5.57;2.75;;;;;;;;;;6136264;28;20199;-80
2022/07/02 06:42:31;;;;;;;4.88;2.95;;;;;;;;;;6171044;28;20384;-78
2022/07/02 06:45:33;;;;;;;4.88;2.70;;;;;;;;;;6261455;28;20053;-80
2022/07/02 06:48:35;;;;;;;6.80;2.65;;;;;;;;;;6258461;28;20102;-78
2022/07/02 06:51:36;;;;;;;6.03;3.20;;;;;;;;;;6257481;28;20850;-76
2022/07/02 06:54:39;;;;;;;8.23;2.88;;;;;;;;;;6251980;28;20288;-76
2022/07/02 06:57:42;;;;;;;6.57;3.20;;;;;;;;;;6253653;28;20045;-77
2022/07/02 07:00:43;;;;;;;6.80;3.70;;;;;;;;;;6255296;28;20059;-76
2022/07/02 07:03:45;;;;;;;5.05;2.90;;;;;;;;;;6256730;28;20041;-78
2022/07/02 07:06:47;;;;;;;10.60;3.15;;;;;;;;;;6252172;28;20138;-76
2022/07/02 07:09:48;;;;;;;7.53;2.95;;;;;;;;;;6255181;28;20054;-76
2022/07/02 07:12:51;;;;;;;5.03;2.80;;;;;;;;;;6256042;28;20061;-79
2022/07/02 07:15:53;;;;;;;7.28;3.13;;;;;;;;;;6252877;28;20065;-76
2022/07/02 07:18:55;;;;;;;12.00;3.22;;;;;;;;;;6252521;28;20059;-76
2022/07/02 07:21:57;;;;;;;8.88;3.63;;;;;;;;;;6261259;28;20048;-77
2022/07/02 07:24:58;;;;;;;7.35;2.88;;;;;;;;;;6256983;28;20049;-76
2022/07/02 07:28:02;;;;;;;5.68;3.45;;;;;;;;;;6257115;28;20045;-76
2022/07/02 07:31:03;;;;;;;;;;;;;;;;;;6228510;28;20359;-76
2022/07/02 07:34:05;;;;;;;4.75;3.03;;;;;;;;;;6242831;28;19933;-77
2022/07/02 07:37:07;;;;;;;5.88;2.90;;;;;;;;;;6241065;28;20071;-79
2022/07/02 07:40:11;;;;;;;9.18;3.33;;;;;;;;;;6258573;28;20362;-78
2022/07/02 07:43:14;;;;;;;9.85;3.15;;;;;;;;;;6252483;28;20368;-78
2022/07/02 07:46:15;;;;;;;;;;;;;;;;;;6255013;28;20062;-78
2022/07/02 07:49:17;;;;;;;14.88;3.60;;;;;;;;;;6254034;28;19917;-77
2022/07/02 07:52:19;;;;;;;5.35;3.13;;;;;;;;;;6257309;28;20551;-77
2022/07/02 07:55:20;;;;;;;5.68;3.35;;;;;;;;;;6256302;28;20060;-77
2022/07/02 07:58:23;;;;;;;9.45;3.55;;;;;;;;;;6258051;28;20057;-77
2022/07/02 08:01:26;;;;;;;;;;;;;;;;;;6257922;28;20325;-77
2022/07/02 08:04:29;;;;;;;6.57;4.00;;;;;;;;;;6253832;28;20234;-77
2022/07/02 08:07:36;;;;;;;6.97;3.83;;;;;;;;;;6255833;28;20267;-77
2022/07/02 08:10:37;;;;;;;7.53;3.55;;;;;;;;;;6255350;28;20247;-77
2022/07/02 08:13:40;;;;;;;8.32;4.25;;;;;;;;;;6254619;28;20324;-77
2022/07/02 08:16:42;;;;;;;7.70;3.92;;;;;;;;;;6253196;28;20049;-77
2022/07/02 08:19:44;;;;;;;13.43;4.65;;;;;;;;;;6251715;28;20057;-78
2022/07/02 08:22:46;;;;;;;5.50;3.40;;;;;;;;;;6253992;28;20045;-82
2022/07/02 08:25:48;;;;;;;8.20;3.53;;;;;;;;;;6254851;28;20059;-82
2022/07/02 08:28:51;;;;;;;6.07;3.47;;;;;;;;;;6249689;28;20054;-80
2022/07/02 08:31:53;;;;;;;11.15;4.28;;;;;;;;;;6254161;28;20124;-78
2022/07/02 08:34:55;;;;;;;8.20;4.18;;;;;;;;;;6251699;28;20052;-77
2022/07/02 08:37:56;;;;;;;12.97;4.37;;;;;;;;;;6252028;28;20049;-77
2022/07/02 08:40:58;;;;;;;8.43;4.40;;;;;;;;;;6255219;28;20052;-78
2022/07/02 08:44:01;;;;;;;8.40;4.57;;;;;;;;;;6252577;28;20049;-79
2022/07/02 08:47:04;;;;;;;8.68;5.57;;;;;;;;;;6253131;28;20335;-77
2022/07/02 08:50:07;;;;;;;11.80;5.00;;;;;;;;;;6254516;28;20175;-78
2022/07/02 08:53:09;;;;;;;11.57;5.65;;;;;;;;;;6255419;28;20057;-77
2022/07/02 08:56:13;;;;;;;10.90;7.30;;;;;;;;;;6256863;28;20045;-78
2022/07/02 08:59:17;;;;;;;6.90;4.95;;;;;;;;;;6255708;28;20061;-78
2022/07/02 09:02:19;;;;;;;7.38;5.13;;;;;;;;;;6255809;28;20056;-77
2022/07/02 09:05:21;;;;;;;7.85;4.88;;;;;;;;;;6252535;28;20378;-78
2022/07/02 09:08:23;;;;;;;;;;;;;;;;;;6251206;28;20057;-78
2022/07/02 09:11:25;;;;;;;9.45;4.28;;;;;;;;;;6255986;28;19929;-78
2022/07/02 09:14:28;;;;;;;10.32;5.57;;;;;;;;;;6252417;28;20061;-77
2022/07/02 09:17:31;;;;;;;8.02;4.50;;;;;;;;;;6255217;28;20057;-77
2022/07/02 09:20:32;;;;;;;6.50;4.22;;;;;;;;;;6248127;28;20050;-79
2022/07/02 09:23:34;;;;;;;10.27;4.43;;;;;;;;;;6253067;28;20099;-78
2022/07/02 09:26:36;;;;;;;9.05;4.70;;;;;;;;;;6249637;28;20045;-77
2022/07/02 09:29:43;;;;;;;9.15;4.75;;;;;;;;;;6254623;28;20053;-77
2022/07/02 09:32:46;;;;;;;6.95;3.80;;;;;;;;;;6247320;28;20087;-77
2022/07/02 09:35:48;;;;;;;7.72;3.63;;;;;;;;;;6251975;28;20053;-77
2022/07/02 09:38:51;;;;;;;9.30;4.30;;;;;;;;;;6253413;28;20097;-77
2022/07/02 09:41:52;;;;;;;8.25;4.78;;;;;;;;;;6252646;28;20052;-77
2022/07/02 09:44:56;;;;;;;9.60;6.00;;;;;;;;;;6253686;28;20087;-79
2022/07/02 09:48:03;;;;;;;9.43;4.88;;;;;;;;;;6254553;28;20267;-77
2022/07/02 09:51:05;;;;;;;9.65;4.72;;;;;;;;;;6253621;28;20052;-76
2022/07/02 09:54:07;;;;;;;7.32;3.90;;;;;;;;;;6254516;28;20049;-79
2022/07/02 09:57:10;;;;;;;9.55;4.38;;;;;;;;;;6252842;28;20124;-78
2022/07/02 10:00:14;;;;;;;8.57;5.10;;;;;;;;;;6253947;28;20049;-78
2022/07/02 10:03:16;;;;;;;7.35;4.32;;;;;;;;;;6252259;28;20042;-78
2022/07/02 10:06:17;;;;;;;6.80;5.00;;;;;;;;;;6254426;28;20045;-79
2022/07/02 10:09:19;;;;;;;8.10;5.32;;;;;;;;;;6254010;28;20107;-79
2022/07/02 10:12:21;;;;;;;8.20;5.03;;;;;;;;;;6255317;28;20049;-77
2022/07/02 10:15:25;;;;;;;6.20;5.05;;;;;;;;;;6254934;28;20053;-78
2022/07/02 10:18:27;;;;;;;6.07;4.00;;;;;;;;;;6253085;28;20172;-78
2022/07/02 10:21:29;;;;;;;10.27;4.35;;;;;;;;;;6253271;28;20344;-78
2022/07/02 10:24:32;;;;;;;5.40;3.88;;;;;;;;;;6253191;28;20057;-78
2022/07/02 10:27:34;;;;;;;11.23;4.95;;;;;;;;;;6252944;28;20386;-74
2022/07/02 10:30:37;;;;;;;6.75;4.10;;;;;;;;;;6253197;28;20376;-77
2022/07/02 10:33:42;;;;;;;6.38;3.78;;;;;;;;;;6255034;28;20045;-76
2022/07/02 10:36:43;;;;;;;6.10;4.03;;;;;;;;;;6251215;28;20076;-77
2022/07/02 10:39:45;;;;;;;7.05;3.92;;;;;;;;;;6255187;28;20052;-79
2022/07/02 10:42:48;;;;;;;;;;;;;;;;;;6250768;28;20112;-84
2022/07/02 10:46:02;;;;;;;4.80;3.72;;;;;;;;;;6252314;28;19953;-76
2022/07/02 10:49:05;;;;;;;7.45;3.53;;;;;;;;;;6252523;28;20045;-76
2022/07/02 10:52:07;;;;;;;5.18;3.67;;;;;;;;;;6254882;28;20088;-76
2022/07/02 10:55:08;;;;;;;;;;;;;;;;;;6253032;28;20052;-78
2022/07/02 10:58:19;;;;;;;9.53;5.23;;;;;;;;;;6252493;28;19925;-76
2022/07/02 11:01:23;;;;;;;5.35;3.70;;;;;;;;;;6255751;28;20468;-78
2022/07/02 11:04:25;;;;;;;5.43;3.47;;;;;;;;;;6252389;28;20056;-80
2022/07/02 11:07:27;;;;;;;7.43;3.75;;;;;;;;;;6254406;28;20057;-79
2022/07/02 11:10:28;;;;;;;;;;;;;;;;;;6254859;28;20107;-82
2022/07/02 11:13:33;;;;;;;5.63;3.43;;;;;;;;;;6259486;28;20100;-82
2022/07/02 11:16:37;;;;;;;6.07;4.20;;;;;;;;;;6255769;28;20436;-83
2022/07/02 11:19:39;;;;;;;6.18;3.83;;;;;;;;;;6259243;28;20057;-80
2022/07/02 11:22:41;;;;;;;;;;;;;;;;;;6258034;28;20083;-81
2022/07/02 11:25:43;;;;;;;6.40;3.35;;;;;;;;;;6251786;28;19932;-80
2022/07/02 11:28:46;;;;;;;4.60;3.50;;;;;;;;;;6253231;28;20058;-81
2022/07/02 11:31:51;;;;;;;5.00;3.63;;;;;;;;;;6237051;28;20132;-75
2022/07/02 11:34:59;;;;;;;4.55;3.30;;;;;;;;;;6245827;28;20256;-80
2022/07/02 11:38:01;;;;;;;4.60;2.90;;;;;;;;;;6253732;28;20131;-77
2022/07/02 11:41:03;;;;;;;3.35;2.80;;;;;;;;;;6254593;28;20107;-79
2022/07/02 11:44:15;;;;;;;6.40;2.97;;;;;;;;;;6255674;28;20049;-77
2022/07/02 11:47:18;;;;;;;52.40;18.88;;;;;;;;;;6253506;28;20263;-78
2022/07/02 11:50:33;;;;;;;42.33;11.35;;;;;;;;;;6255189;28;20052;-77
2022/07/02 11:53:34;;;;;;;7.05;2.83;;;;;;;;;;6255806;28;20057;-80
2022/07/02 11:56:39;;;;;;;3.92;2.95;;;;;;;;;;6252265;28;20189;-79
2022/07/02 11:59:41;;;;;;;5.47;2.60;;;;;;;;;;6251863;28;20107;-78
2022/07/02 12:02:43;;;;;;;;;;;;;;;;;;6255751;28;20053;-78
2022/07/02 12:05:52;;;;;;;5.53;2.70;;;;;;;;;;6251789;28;19916;-77
2022/07/02 12:08:55;;;;;;;2.78;2.30;;;;;;;;;;6223295;28;20286;-79
2022/07/02 12:11:58;;;;;;;4.22;2.40;;;;;;;;;;6240920;28;20049;-79
2022/07/02 12:15:00;;;;;;;6.00;2.67;;;;;;;;;;6232101;28;20053;-82
2022/07/02 12:18:03;;;;;;;4.30;2.20;;;;;;;;;;6232112;28;20415;-79
2022/07/02 12:21:12;;;;;;;3.35;2.15;;;;;;;;;;6230500;28;20056;-79
2022/07/02 12:24:22;;;;;;;4.10;2.10;;;;;;;;;;6251208;28;20049;-80
2022/07/02 12:27:24;;;;;;;3.40;2.45;;;;;;;;;;6250945;28;20041;-80
2022/07/02 12:30:25;;;;;;;4.18;2.10;;;;;;;;;;6252591;28;20336;-82
2022/07/02 12:33:32;;;;;;;5.20;2.37;;;;;;;;;;6251121;28;20072;-81
2022/07/02 12:36:34;;;;;;;3.83;2.30;;;;;;;;;;6247603;28;20581;-81
2022/07/02 12:39:41;;;;;;;5.70;1.83;;;;;;;;;;6251460;28;20057;-81
2022/07/02 12:42:47;;;;;;;4.15;2.05;;;;;;;;;;6250929;28;20064;-81
2022/07/02 12:45:48;;;;;;;2.70;1.95;;;;;;;;;;6251820;28;20065;-82
2022/07/02 12:48:51;;;;;;;3.35;2.35;;;;;;;;;;6252760;28;20188;-81
2022/07/02 12:52:00;;;;;;;3.85;2.08;;;;;;;;;;6250981;28;20339;-80
2022/07/02 12:55:01;;;;;;;6.90;2.00;;;;;;;;;;6249383;28;20049;-79
2022/07/02 12:58:05;;;;;;;2.72;1.90;;;;;;;;;;6253547;28;20100;-80
2022/07/02 13:01:07;;;;;;;3.13;2.00;;;;;;;;;;6251675;28;20084;-79
2022/07/02 13:04:10;;;;;;;2.40;2.20;;;;;;;;;;6250729;28;20095;-79
2022/07/02 13:07:15;;;;;;;2.50;2.20;;;;;;;;;;6249741;28;20053;-81
2022/07/02 13:10:17;;;;;;;5.53;1.90;;;;;;;;;;6251756;28;20325;-80
2022/07/02 13:13:22;;;;;;;3.80;2.22;;;;;;;;;;6249151;28;20079;-79
2022/07/02 13:16:23;;;;;;;4.35;2.10;;;;;;;;;;6247392;28;20053;-79
2022/07/02 13:19:26;;;;;;;3.15;1.92;;;;;;;;;;6247870;28;20343;-79
2022/07/02 13:22:28;;;;;;;7.18;1.85;;;;;;;;;;6250273;28;20366;-80
2022/07/02 13:25:30;;;;;;;3.33;1.70;;;;;;;;;;6250835;28;20261;-79
2022/07/02 13:28:31;;;;;;;3.65;1.90;;;;;;;;;;6250499;28;20127;-79
2022/07/02 13:31:34;;;;;;;;;;;;;;;;;;6249205;28;20331;-80
2022/07/02 13:34:37;;;;;;;4.72;1.92;;;;;;;;;;6247319;28;19952;-80
2022/07/02 13:37:40;;;;;;;2.90;2.10;;;;;;;;;;6250901;28;20356;-81
2022/07/02 13:40:42;;;;;;;4.00;1.88;;;;;;;;;;6250858;28;20089;-80
2022/07/02 13:43:43;;;;;;;4.93;1.77;;;;;;;;;;6251237;28;20041;-80
2022/07/02 13:46:45;;;;;;;2.20;1.90;;;;;;;;;;6249415;28;20056;-80
2022/07/02 13:49:49;;;;;;;2.03;1.83;;;;;;;;;;6249625;28;20061;-80
2022/07/02 13:52:50;;;;;;;3.30;1.70;;;;;;;;;;6248818;28;20368;-81
2022/07/02 13:55:52;;;;;;;2.10;1.90;;;;;;;;;;6253024;28;20098;-80
2022/07/02 13:58:53;;;;;;;3.90;2.13;;;;;;;;;;6245013;28;20116;-81
2022/07/02 14:01:56;;;;;;;2.55;1.85;;;;;;;;;;6248203;28;21095;-81
2022/07/02 14:04:59;;;;;;;3.85;1.80;;;;;;;;;;6246816;28;20060;-82
2022/07/02 14:08:01;;;;;;;5.45;2.33;;;;;;;;;;6243009;28;20237;-80
2022/07/02 14:11:03;;;;;;;3.40;1.83;;;;;;;;;;6245904;28;20052;-83
2022/07/02 14:14:05;;;;;;;3.72;1.80;;;;;;;;;;6247502;28;20059;-84
2022/07/02 14:17:06;;;;;;;;;;;;;;;;;;6244382;28;20056;-83
2022/07/02 14:20:10;;;;;;;3.70;1.80;;;;;;;;;;6244310;28;20101;-83
2022/07/02 14:23:11;;;;;;;3.67;1.77;;;;;;;;;;6245969;28;20108;-82
2022/07/02 14:26:13;;;;;;;;;;;;;;;;;;6249191;28;20124;-84
2022/07/02 14:29:16;;;;;;;3.07;1.77;;;;;;;;;;6246692;28;19932;-84
2022/07/02 14:32:18;;;;;;;2.83;1.90;;;;;;;;;;6245870;28;20053;-83
2022/07/02 14:35:21;;;;;;;4.40;1.95;;;;;;;;;;6246981;28;20053;-79
2022/07/02 14:38:23;;;;;;;2.45;1.70;;;;;;;;;;6245051;28;20065;-77
2022/07/02 14:41:33;;;;;;;4.57;2.08;;;;;;;;;;6246269;28;20091;-78
2022/07/02 14:44:35;;;;;;;2.03;1.48;;;;;;;;;;6252259;28;20292;-78
2022/07/02 14:47:37;;;;;;;4.50;1.70;;;;;;;;;;6243012;28;20068;-80
2022/07/02 14:50:40;;;;;;;5.05;1.90;;;;;;;;;;6241237;28;20120;-85
2022/07/02 14:53:43;;;;;;;3.72;1.88;;;;;;;;;;6245763;28;21913;-81
2022/07/02 14:56:45;;;;;;;2.45;1.60;;;;;;;;;;6244516;28;20053;-80
2022/07/02 14:59:46;;;;;;;2.65;1.42;;;;;;;;;;6249363;28;20065;-82
2022/07/02 15:02:48;;;;;;;3.75;1.67;;;;;;;;;;6244203;28;20100;-79
2022/07/02 15:05:51;;;;;;;2.67;1.40;;;;;;;;;;6248638;28;20089;-79
2022/07/02 15:08:52;;;;;;;4.20;1.58;;;;;;;;;;6249791;28;20099;-79
2022/07/02 15:11:54;;;;;;;3.33;1.73;;;;;;;;;;6252003;28;20332;-83
2022/07/02 15:18:16;;;;;;;6.90;1.42;;;;;;;;;;6241379;28;20353;-80
2022/07/02 15:21:21;;;;;;;3.30;1.70;;;;;;;;;;6244141;28;20069;-79
2022/07/02 15:24:24;;;;;;;4.38;1.40;;;;;;;;;;6241611;28;20052;-81
2022/07/02 15:27:26;;;;;;;3.97;1.40;;;;;;;;;;6250348;28;20098;-80
2022/07/02 15:30:29;;;;;;;3.60;1.65;;;;;;;;;;6240600;28;20061;-87
2022/07/02 15:33:36;;;;;;;6.00;1.65;;;;;;;;;;6243718;28;20271;-81
2022/07/02 15:36:39;;;;;;;2.30;1.70;;;;;;;;;;6243838;28;20060;-87
2022/07/02 15:39:45;;;;;;;2.63;1.77;;;;;;;;;;6249943;28;20064;-83
2022/07/02 15:42:47;;;;;;;2.55;1.90;;;;;;;;;;6247160;28;20415;-85
2022/07/02 15:45:49;;;;;;;4.22;2.05;;;;;;;;;;6248698;28;20048;-83
2022/07/02 15:48:51;;;;;;;3.67;1.93;;;;;;;;;;6245466;28;20069;-78
2022/07/02 15:51:56;;;;;;;2.38;1.65;;;;;;;;;;6244896;28;20479;-82
2022/07/02 15:55:04;;;;;;;2.58;1.73;;;;;;;;;;6240668;28;20053;-84
2022/07/02 15:58:11;;;;;;;3.67;1.80;;;;;;;;;;6239585;28;20091;-85
2022/07/02 16:01:13;;;;;;;3.25;1.60;;;;;;;;;;6250055;28;20049;-88
2022/07/02 16:04:16;;;;;;;2.05;1.80;;;;;;;;;;6245081;28;20111;-75
2022/07/02 16:07:21;;;;;;;6.00;2.17;;;;;;;;;;6242709;28;20424;-85
2022/07/02 16:10:23;;;;;;;3.85;1.77;;;;;;;;;;6234393;28;20332;-87
2022/07/02 16:13:25;;;;;;;4.60;1.90;;;;;;;;;;6238198;28;20874;-82
2022/07/02 16:16:27;;;;;;;4.85;1.67;;;;;;;;;;6246396;28;20050;-81
2022/07/02 16:19:28;;;;;;;4.53;1.83;;;;;;;;;;6224733;28;20108;-82
2022/07/02 16:22:32;;;;;;;4.95;1.85;;;;;;;;;;6246218;28;20467;-82
2022/07/02 16:25:33;;;;;;;3.03;1.60;;;;;;;;;;6253887;28;20099;-82
2022/07/02 16:28:35;;;;;;;5.40;1.88;;;;;;;;;;6255117;28;20061;-80
2022/07/02 16:31:43;;;;;;;5.38;2.00;;;;;;;;;;6253188;28;20075;-82
2022/07/02 16:34:49;;;;;;;3.58;2.17;;;;;;;;;;6252850;28;20093;-81
2022/07/02 16:37:54;;;;;;;6.70;2.25;;;;;;;;;;6256241;28;20054;-82
2022/07/02 16:40:56;;;;;;;8.57;2.00;;;;;;;;;;6254535;28;20057;-81
2022/07/02 16:44:00;;;;;;;6.32;2.20;;;;;;;;;;6258191;28;20100;-79
2022/07/02 16:47:03;;;;;;;4.70;1.90;;;;;;;;;;6260346;28;20049;-81
2022/07/02 16:50:07;;;;;;;4.40;2.05;;;;;;;;;;6259842;28;20045;-79
2022/07/02 16:53:10;;;;;;;5.78;2.00;;;;;;;;;;6257527;28;20059;-79
2022/07/02 16:56:12;;;;;;;3.78;2.00;;;;;;;;;;6260857;28;20044;-79
2022/07/02 16:59:14;;;;;;;3.60;1.90;;;;;;;;;;6257323;28;20045;-79
2022/07/02 17:02:19;;;;;;;4.18;1.92;;;;;;;;;;6259369;28;20061;-80
2022/07/02 17:05:21;;;;;;;2.80;2.00;;;;;;;;;;6259440;28;20057;-79
2022/07/02 17:08:24;;;;;;;7.63;2.10;;;;;;;;;;6260320;28;20325;-81
2022/07/02 17:11:31;;;;;;;4.10;2.00;;;;;;;;;;6261564;28;20103;-79
2022/07/02 17:14:33;;;;;;;3.35;1.90;;;;;;;;;;6255897;28;20049;-79
2022/07/02 17:17:34;;;;;;;4.40;2.00;;;;;;;;;;6258471;28;20049;-79
2022/07/02 17:20:36;;;;;;;2.75;2.10;;;;;;;;;;6255420;28;20072;-79
2022/07/02 17:23:39;;;;;;;2.33;1.90;;;;;;;;;;6261493;28;20065;-79
2022/07/02 17:26:41;;;;;;;3.67;1.80;;;;;;;;;;6260712;28;20057;-79
2022/07/02 17:29:43;;;;;;;5.53;1.87;;;;;;;;;;6263099;28;20056;-80
2022/07/02 17:32:44;;;;;;;3.67;1.90;;;;;;;;;;6256032;28;20046;-80
2022/07/02 17:35:47;;;;;;;3.23;1.60;;;;;;;;;;6259116;28;20158;-79
2022/07/02 17:38:50;;;;;;;2.92;1.90;;;;;;;;;;6252934;28;20100;-79
2022/07/02 17:41:52;;;;;;;6.25;2.05;;;;;;;;;;6256010;28;20108;-79
2022/07/02 17:44:53;;;;;;;3.72;1.83;;;;;;;;;;6255004;28;20049;-79
2022/07/02 17:47:55;;;;;;;6.05;2.10;;;;;;;;;;6256426;28;20053;-79
2022/07/02 17:50:57;;;;;;;4.13;2.47;;;;;;;;;;6257826;28;20390;-79
2022/07/02 17:54:00;;;;;;;4.45;1.70;;;;;;;;;;6259496;28;20056;-82
2022/07/02 17:57:02;;;;;;;4.35;2.10;;;;;;;;;;6257504;28;20052;-81
2022/07/02 18:00:06;;;;;;;3.05;1.80;;;;;;;;;;6262636;28;20201;-81
2022/07/02 18:03:07;;;;;;;5.80;1.88;;;;;;;;;;6258288;28;20053;-81
2022/07/02 18:06:09;;;;;;;3.30;1.70;;;;;;;;;;6258255;28;20064;-80
2022/07/02 18:09:12;;;;;;;3.40;1.83;;;;;;;;;;6258371;28;20451;-80
2022/07/02 18:12:14;;;;;;;4.68;1.85;;;;;;;;;;6255720;28;20046;-80
2022/07/02 18:15:16;;;;;;;2.63;1.80;;;;;;;;;;6258846;28;20049;-80
2022/07/02 18:18:18;;;;;;;3.47;1.92;;;;;;;;;;6254980;28;20317;-80
2022/07/02 18:21:19;;;;;;;4.87;2.10;;;;;;;;;;6256805;28;20087;-80
2022/07/02 18:24:23;;;;;;;2.20;1.80;;;;;;;;;;6241761;28;20352;-80
2022/07/02 18:27:24;;;;;;;4.78;2.10;;;;;;;;;;6257836;28;20053;-80